Time;durP1;ratioP1;P1;durP2;ratioP2;P2;SDS_P1;SDS_P2;PMS_P1;PMS_P2;Temp;Humidity;BMP_temperature;BMP_pressure;BME280_temperature;BME280_humidity;BME280_pressure;Samples;Min_cycle;Max_cycle;Signal;HPM_P1;HPM_P2
2022/04/06 00:01:25;;;;;;;38.75;36.15;;;;;;;3.47;100.00;100649.50;5065988;28;20397;-79
2022/04/06 00:03:52;;;;;;;37.50;34.83;;;;;;;3.66;100.00;100651.84;5065189;28;20118;-78
2022/04/06 00:06:21;;;;;;;35.47;33.17;;;;;;;3.82;100.00;100652.84;5068261;28;20106;-78
2022/04/06 00:08:48;;;;;;;36.55;34.05;;;;;;;3.92;100.00;100644.78;5064099;28;20107;-78
2022/04/06 00:11:15;;;;;;;37.70;35.38;;;;;;;4.01;100.00;100652.50;5065016;28;20049;-79
2022/04/06 00:13:41;;;;;;;37.88;35.42;;;;;;;3.88;100.00;100660.88;5063849;28;20139;-78
2022/04/06 00:16:08;;;;;;;37.95;35.60;;;;;;;4.00;100.00;100653.50;5058856;28;20108;-78
2022/04/06 00:18:35;;;;;;;39.00;36.40;;;;;;;3.49;100.00;100651.97;5065727;28;20056;-79
2022/04/06 00:21:02;;;;;;;35.72;33.47;;;;;;;3.35;100.00;100662.09;5064358;28;20078;-78
2022/04/06 00:23:30;;;;;;;43.35;40.60;;;;;;;3.53;100.00;100663.78;5071973;28;20504;-78
2022/04/06 00:25:57;;;;;;;40.30;37.70;;;;;;;3.36;100.00;100657.66;5063917;28;20106;-78
2022/04/06 00:28:24;;;;;;;40.63;38.13;;;;;;;3.13;100.00;100663.50;5061033;28;20049;-79
2022/04/06 00:30:50;;;;;;;37.17;34.70;;;;;;;3.25;100.00;100655.34;5063397;28;20041;-78
2022/04/06 00:33:17;;;;;;;36.33;34.03;;;;;;;3.30;100.00;100663.53;5067395;28;20106;-79
2022/04/06 00:35:44;;;;;;;38.25;35.67;;;;;;;3.09;100.00;100669.25;5063727;28;20504;-78
2022/04/06 00:38:11;;;;;;;43.20;40.50;;;;;;;3.08;100.00;100662.34;5059429;28;20048;-79
2022/04/06 00:40:39;;;;;;;39.20;36.50;;;;;;;3.31;100.00;100662.59;5065362;28;20504;-78
2022/04/06 00:43:07;;;;;;;39.17;36.65;;;;;;;3.31;100.00;100665.22;5062396;28;20101;-78
2022/04/06 00:45:34;;;;;;;45.85;43.03;;;;;;;2.91;100.00;100669.34;5058285;28;20045;-78
2022/04/06 00:48:02;;;;;;;41.70;39.00;;;;;;;3.23;100.00;100679.13;5071919;28;20416;-78
2022/04/06 00:50:29;;;;;;;41.30;38.80;;;;;;;3.32;100.00;100664.22;5068249;28;20106;-78
2022/04/06 00:52:57;;;;;;;41.75;38.95;;;;;;;3.29;100.00;100680.28;5057376;28;20049;-79
2022/04/06 00:55:28;;;;;;;41.47;38.67;;;;;;;3.13;100.00;100679.25;5069365;28;20041;-78
2022/04/06 00:57:56;;;;;;;36.45;34.30;;;;;;;3.26;100.00;100683.25;5056213;28;20049;-78
2022/04/06 01:00:24;;;;;;;42.13;39.40;;;;;;;2.96;100.00;100680.97;5061398;28;20075;-78
2022/04/06 01:02:51;;;;;;;40.70;37.67;;;;;;;2.89;100.00;100674.72;5060264;28;20055;-78
2022/04/06 01:05:18;;;;;;;39.78;36.35;;;;;;;2.87;100.00;100687.16;5061816;28;20049;-78
2022/04/06 01:07:50;;;;;;;37.97;35.33;;;;;;;2.89;100.00;100685.22;5069444;28;20049;-78
2022/04/06 01:10:17;;;;;;;38.40;35.70;;;;;;;2.75;100.00;100677.91;5070098;28;20044;-79
2022/04/06 01:12:46;;;;;;;43.78;40.97;;;;;;;3.04;100.00;100682.81;5062339;28;20740;-78
2022/04/06 01:15:15;;;;;;;43.55;40.58;;;;;;;3.13;100.00;100679.25;5057662;28;20071;-78
2022/04/06 01:17:43;;;;;;;42.95;40.05;;;;;;;3.03;100.00;100681.19;5063523;28;20057;-78
2022/04/06 01:20:13;;;;;;;45.72;42.88;;;;;;;3.28;100.00;100674.22;5060818;28;20040;-78
2022/04/06 01:22:41;;;;;;;42.05;39.45;;;;;;;3.22;100.00;100675.69;5070225;28;20109;-78
2022/04/06 01:25:09;;;;;;;41.83;39.42;;;;;;;3.22;100.00;100672.22;5062611;28;20041;-79
2022/04/06 01:27:36;;;;;;;42.28;39.78;;;;;;;3.30;100.00;100668.81;5062447;28;20107;-78
2022/04/06 01:30:03;;;;;;;39.72;37.28;;;;;;;3.43;100.00;100674.44;5064304;28;20508;-78
2022/04/06 01:32:32;;;;;;;40.35;37.88;;;;;;;3.04;100.00;100674.13;5060624;28;20056;-78
2022/04/06 01:35:00;;;;;;;37.30;35.10;;;;;;;3.37;100.00;100672.44;5065717;28;20044;-79
2022/04/06 01:37:28;;;;;;;41.72;39.20;;;;;;;3.38;100.00;100669.66;5069941;28;20471;-79
2022/04/06 01:39:56;;;;;;;39.13;36.67;;;;;;;3.10;100.00;100673.50;5069461;28;20565;-78
2022/04/06 01:42:23;;;;;;;37.88;35.38;;;;;;;3.11;100.00;100678.59;5060573;28;20061;-78
2022/04/06 01:44:51;;;;;;;37.03;34.47;;;;;;;2.85;100.00;100673.41;5061509;28;20186;-78
2022/04/06 01:47:20;;;;;;;36.85;34.55;;;;;;;2.87;100.00;100679.28;5069004;28;20129;-78
2022/04/06 01:52:32;;;;;;;38.85;36.25;;;;;;;2.90;100.00;100686.84;5061783;28;20105;-78
2022/04/06 01:55:02;;;;;;;39.78;37.17;;;;;;;2.84;100.00;100686.66;5066593;28;20117;-78
2022/04/06 01:57:29;;;;;;;37.92;35.50;;;;;;;3.13;100.00;100684.50;5060733;28;20512;-78
2022/04/06 01:59:57;;;;;;;35.22;32.83;;;;;;;3.12;100.00;100682.88;5063238;28;20044;-78
2022/04/06 02:02:26;;;;;;;34.22;31.88;;;;;;;3.32;100.00;100682.59;5064492;28;20049;-78
2022/04/06 02:04:53;;;;;;;39.22;36.72;;;;;;;3.03;100.00;100688.25;5061725;28;20110;-78
2022/04/06 02:07:20;;;;;;;38.33;36.13;;;;;;;3.19;100.00;100689.13;5066618;28;20500;-78
2022/04/06 02:09:47;;;;;;;38.28;35.95;;;;;;;3.11;100.00;100685.63;5070515;28;20113;-78
2022/04/06 02:12:15;;;;;;;37.33;35.22;;;;;;;2.96;100.00;100685.41;5064243;28;20049;-78
2022/04/06 02:14:43;;;;;;;37.17;34.97;;;;;;;2.63;100.00;100679.16;5069056;28;20060;-79
2022/04/06 02:17:11;;;;;;;43.25;40.55;;;;;;;2.97;100.00;100674.75;5072047;28;20048;-79
2022/04/06 02:19:39;;;;;;;34.97;32.60;;;;;;;2.96;100.00;100686.22;5063831;28;20052;-78
2022/04/06 02:22:08;;;;;;;33.85;31.45;;;;;;;2.75;100.00;100686.63;5075257;28;20135;-78
2022/04/06 02:24:36;;;;;;;35.65;33.10;;;;;;;2.96;100.00;100691.47;5066512;28;20045;-78
2022/04/06 02:27:05;;;;;;;35.53;32.92;;;;;;;2.34;100.00;100688.16;5063205;28;20055;-78
2022/04/06 02:29:33;;;;;;;35.92;33.40;;;;;;;2.14;100.00;100689.31;5065701;28;20051;-78
2022/04/06 02:32:00;;;;;;;35.08;32.67;;;;;;;2.28;100.00;100694.03;5069014;28;20140;-78
2022/04/06 02:34:27;;;;;;;34.95;32.55;;;;;;;2.19;100.00;100689.69;5064723;28;20049;-79
2022/04/06 02:36:54;;;;;;;35.72;33.13;;;;;;;1.94;100.00;100684.25;5061494;28;20111;-78
2022/04/06 02:39:20;;;;;;;35.70;33.00;;;;;;;2.11;100.00;100694.84;5064753;28;20040;-79
2022/04/06 02:41:47;;;;;;;39.35;36.30;;;;;;;1.93;100.00;100698.31;5065249;28;20045;-79
2022/04/06 02:44:15;;;;;;;42.00;39.38;;;;;;;1.80;100.00;100700.47;5069578;28;20048;-78
2022/04/06 02:46:43;;;;;;;43.40;40.42;;;;;;;1.76;100.00;100704.38;5069220;28;20683;-79
2022/04/06 02:49:10;;;;;;;46.88;43.50;;;;;;;1.77;100.00;100696.34;5062859;28;20045;-79
2022/04/06 02:51:37;;;;;;;47.47;44.13;;;;;;;1.73;100.00;100699.44;5062498;28;20045;-79
2022/04/06 02:54:04;;;;;;;45.55;42.13;;;;;;;1.61;100.00;100698.84;5065629;28;20053;-78
2022/04/06 02:56:31;;;;;;;46.78;43.30;;;;;;;1.56;100.00;100701.88;5068655;28;20045;-78
2022/04/06 02:58:58;;;;;;;47.03;43.65;;;;;;;1.63;100.00;100696.03;5066956;28;20448;-79
2022/04/06 03:01:24;;;;;;;53.28;48.90;;;;;;;1.63;100.00;100696.88;5071641;28;20101;-79
2022/04/06 03:03:52;;;;;;;50.70;46.58;;;;;;;1.51;100.00;100700.66;5064751;28;20070;-78
2022/04/06 03:06:20;;;;;;;50.40;45.88;;;;;;;1.40;100.00;100695.66;5065880;28;20102;-79
2022/04/06 03:08:47;;;;;;;47.90;43.58;;;;;;;1.59;100.00;100704.19;5066132;28;20045;-79
2022/04/06 03:11:14;;;;;;;53.67;49.38;;;;;;;1.76;100.00;100713.06;5065140;28;20105;-78
2022/04/06 03:13:41;;;;;;;45.17;41.05;;;;;;;1.57;100.00;100711.41;5065386;28;20534;-78
2022/04/06 03:16:08;;;;;;;45.75;41.88;;;;;;;1.88;100.00;100720.72;5071414;28;20174;-79
2022/04/06 03:18:35;;;;;;;40.03;37.17;;;;;;;1.64;100.00;100711.63;5060089;28;20534;-78
2022/04/06 03:21:03;;;;;;;41.45;38.45;;;;;;;1.82;100.00;100720.31;5063094;28;20103;-79
2022/04/06 03:23:30;;;;;;;41.47;38.63;;;;;;;2.00;100.00;100714.28;5063029;28;20044;-78
2022/04/06 03:25:58;;;;;;;40.97;37.53;;;;;;;1.66;100.00;100727.16;5069648;28;20047;-79
2022/04/06 03:28:25;;;;;;;40.15;37.05;;;;;;;1.31;100.00;100720.91;5061540;28;20505;-78
2022/04/06 03:30:52;;;;;;;38.92;36.08;;;;;;;1.41;100.00;100726.09;5071959;28;20501;-79
2022/04/06 03:33:18;;;;;;;44.30;40.67;;;;;;;1.28;100.00;100731.66;5063233;28;20052;-79
2022/04/06 03:35:45;;;;;;;44.47;40.70;;;;;;;1.35;100.00;100724.88;5064940;28;20106;-78
2022/04/06 03:38:13;;;;;;;41.83;38.42;;;;;;;0.90;100.00;100729.03;5060191;28;20581;-79
2022/04/06 03:40:41;;;;;;;39.58;36.28;;;;;;;1.13;100.00;100736.53;5066400;28;20110;-79
2022/04/06 03:43:08;;;;;;;39.63;36.08;;;;;;;1.46;100.00;100736.94;5064207;28;20114;-79
2022/04/06 03:45:35;;;;;;;39.30;36.15;;;;;;;1.61;100.00;100748.56;5068494;28;20052;-79
2022/04/06 03:48:01;;;;;;;34.50;31.92;;;;;;;1.94;100.00;100749.75;5062357;28;20455;-79
2022/04/06 03:50:28;;;;;;;36.95;33.95;;;;;;;2.01;100.00;100750.78;5065982;28;20049;-79
2022/04/06 03:52:55;;;;;;;37.22;34.47;;;;;;;1.83;100.00;100753.38;5056181;28;20099;-78
2022/04/06 03:55:23;;;;;;;38.70;36.00;;;;;;;1.72;100.00;100756.19;5069165;28;20041;-79
2022/04/06 03:57:50;;;;;;;37.42;34.60;;;;;;;1.54;100.00;100766.66;5065770;28;20048;-79
2022/04/06 04:00:18;;;;;;;37.33;34.13;;;;;;;1.42;100.00;100769.59;5071773;28;20101;-79
2022/04/06 04:02:45;;;;;;;39.15;36.03;;;;;;;1.01;100.00;100761.25;5065850;28;20049;-79
2022/04/06 04:05:13;;;;;;;40.28;36.97;;;;;;;0.85;100.00;100761.84;5059245;28;20049;-79
2022/04/06 04:07:40;;;;;;;44.30;40.05;;;;;;;0.75;100.00;100766.25;5069927;28;20056;-78
2022/04/06 04:10:10;;;;;;;40.60;37.60;;;;;;;0.75;100.00;100768.88;5071128;28;20049;-79
2022/04/06 04:12:38;;;;;;;42.15;38.75;;;;;;;0.88;100.00;100772.00;5067446;28;20127;-79
2022/04/06 04:15:06;;;;;;;49.17;43.78;;;;;;;0.90;100.00;100768.25;5066559;28;20049;-79
2022/04/06 04:17:33;;;;;;;252.80;107.15;;;;;;;0.95;100.00;100770.47;5066248;28;20057;-78
2022/04/06 04:20:00;;;;;;;266.98;110.80;;;;;;;1.03;100.00;100772.38;5059904;28;20045;-78
2022/04/06 04:22:26;;;;;;;412.40;162.18;;;;;;;1.51;100.00;100777.44;5071306;28;20048;-78
2022/04/06 04:24:53;;;;;;;308.52;126.40;;;;;;;1.38;100.00;100785.59;5071943;28;20525;-79
2022/04/06 04:27:20;;;;;;;278.83;116.30;;;;;;;1.50;100.00;100793.28;5068317;28;20094;-78
2022/04/06 04:29:48;;;;;;;257.45;109.30;;;;;;;1.60;100.00;100799.28;5060743;28;20053;-79
2022/04/06 04:32:16;;;;;;;277.33;114.32;;;;;;;1.77;100.00;100797.69;5063712;28;20049;-78
2022/04/06 04:34:43;;;;;;;278.52;122.97;;;;;;;2.10;100.00;100798.03;5064477;28;20044;-79
2022/04/06 04:37:10;;;;;;;108.40;61.28;;;;;;;2.31;100.00;100803.81;5057085;28;20048;-79
2022/04/06 04:39:36;;;;;;;73.15;52.72;;;;;;;2.59;100.00;100807.16;5059828;28;20106;-79
2022/04/06 04:42:04;;;;;;;59.70;44.67;;;;;;;2.50;100.00;100808.88;5068135;28;20493;-79
2022/04/06 04:44:31;;;;;;;60.78;45.92;;;;;;;2.59;100.00;100815.00;5057613;28;20048;-79
2022/04/06 04:47:00;;;;;;;53.67;42.72;;;;;;;2.80;100.00;100814.69;5012566;28;20484;-79
2022/04/06 04:49:26;;;;;;;46.83;42.10;;;;;;;3.03;100.00;100814.22;5066683;28;20080;-78
2022/04/06 04:51:53;;;;;;;51.08;45.13;;;;;;;3.04;100.00;100816.66;5067377;28;20049;-78
2022/04/06 04:54:24;;;;;;;49.10;43.03;;;;;;;3.18;100.00;100816.09;5060502;28;20106;-79
2022/04/06 04:56:52;;;;;;;45.78;40.95;;;;;;;3.35;100.00;100829.31;5069496;28;20057;-79
2022/04/06 04:59:19;;;;;;;43.40;38.92;;;;;;;3.59;100.00;100824.16;5065528;28;20562;-78
2022/04/06 05:01:46;;;;;;;43.50;39.22;;;;;;;3.49;100.00;100826.09;5066765;28;20101;-79
2022/04/06 05:04:14;;;;;;;40.70;36.78;;;;;;;3.83;100.00;100831.31;5063985;28;20075;-79
2022/04/06 05:06:41;;;;;;;45.05;40.78;;;;;;;3.90;100.00;100835.00;5062372;28;20136;-79
2022/04/06 05:09:08;;;;;;;41.60;37.92;;;;;;;4.11;100.00;100836.34;5064188;28;20082;-79
2022/04/06 05:11:35;;;;;;;37.10;34.03;;;;;;;4.13;100.00;100831.75;5061672;28;20494;-79
2022/04/06 05:14:01;;;;;;;39.20;35.33;;;;;;;4.35;100.00;100833.75;5065839;28;20098;-79
2022/04/06 05:16:28;;;;;;;37.00;33.90;;;;;;;4.56;100.00;100835.91;5066069;28;20109;-79
2022/04/06 05:18:55;;;;;;;52.15;42.35;;;;;;;4.63;100.00;100841.38;5062451;28;20057;-79
2022/04/06 05:21:23;;;;;;;37.47;34.65;;;;;;;4.88;100.00;100841.34;5033178;28;20500;-79
2022/04/06 05:23:51;;;;;;;58.33;43.47;;;;;;;5.10;100.00;100837.22;5077087;28;20044;-79
2022/04/06 05:26:17;;;;;;;37.20;33.65;;;;;;;5.17;100.00;100839.00;5080805;28;20458;-79
2022/04/06 05:28:44;;;;;;;40.33;36.63;;;;;;;5.26;100.00;100843.28;5080353;28;20473;-79
2022/04/06 05:31:11;;;;;;;35.08;32.33;;;;;;;5.44;100.00;100839.59;5081904;28;20478;-79
2022/04/06 05:33:38;;;;;;;43.63;38.90;;;;;;;5.58;100.00;100844.16;5089224;28;20040;-79
2022/04/06 05:36:06;;;;;;;34.25;31.67;;;;;;;5.64;100.00;100842.69;5086190;28;20052;-79
2022/04/06 05:38:35;;;;;;;40.97;36.92;;;;;;;5.78;100.00;100847.25;5089104;28;20044;-79
2022/04/06 05:41:02;;;;;;;37.33;34.45;;;;;;;5.93;100.00;100848.19;5083335;28;20071;-79
2022/04/06 05:43:29;;;;;;;35.75;33.10;;;;;;;6.04;100.00;100849.59;5093102;28;20119;-79
2022/04/06 05:45:56;;;;;;;36.47;33.97;;;;;;;6.18;100.00;100843.59;5093218;28;20088;-79
2022/04/06 05:48:22;;;;;;;36.13;33.80;;;;;;;6.54;100.00;100850.97;5086446;28;20108;-79
2022/04/06 05:50:49;;;;;;;36.40;33.88;;;;;;;6.78;100.00;100849.94;5085919;28;20040;-79
2022/04/06 05:53:16;;;;;;;34.92;32.78;;;;;;;7.05;100.00;100851.19;5093259;28;20046;-79
2022/04/06 05:55:47;;;;;;;41.00;37.97;;;;;;;7.24;100.00;100851.69;5093955;28;20469;-79
2022/04/06 05:58:14;;;;;;;37.47;35.15;;;;;;;7.36;100.00;100844.13;5087463;28;20067;-79
2022/04/06 06:00:41;;;;;;;40.75;37.80;;;;;;;7.46;100.00;100847.31;5087382;28;20044;-79
2022/04/06 06:03:08;;;;;;;38.65;35.83;;;;;;;7.60;100.00;100845.69;5091350;28;20048;-79
2022/04/06 06:05:34;;;;;;;41.85;38.42;;;;;;;7.69;100.00;100842.75;5091603;28;20059;-79
2022/04/06 06:08:01;;;;;;;34.70;32.58;;;;;;;8.00;100.00;100841.69;5090885;28;20048;-79
2022/04/06 06:10:28;;;;;;;34.80;32.70;;;;;;;8.15;100.00;100844.31;5087593;28;20052;-79
2022/04/06 06:12:56;;;;;;;39.75;37.03;;;;;;;8.63;100.00;100844.63;5090837;28;20055;-79
2022/04/06 06:15:23;;;;;;;36.65;34.35;;;;;;;8.44;100.00;100841.59;5090013;28;20039;-80
2022/04/06 06:17:49;;;;;;;38.35;35.45;;;;;;;8.92;100.00;100839.16;5088781;28;20093;-80
2022/04/06 06:20:16;;;;;;;38.58;36.08;;;;;;;9.09;100.00;100837.06;5092646;28;20048;-79
2022/04/06 06:22:43;;;;;;;36.97;34.22;;;;;;;9.54;100.00;100837.53;5091836;28;20101;-80
2022/04/06 06:25:10;;;;;;;39.05;35.95;;;;;;;9.78;100.00;100846.84;5082722;28;20474;-80
2022/04/06 06:27:41;;;;;;;43.78;40.10;;;;;;;9.64;100.00;100843.28;5093689;28;20077;-79
2022/04/06 06:30:13;;;;;;;46.95;42.20;;;;;;;10.02;100.00;100848.16;5094010;28;20040;-80
2022/04/06 06:32:39;;;;;;;42.58;38.83;;;;;;;10.76;100.00;100854.47;5090522;28;20127;-80
2022/04/06 06:35:09;;;;;;;44.50;39.85;;;;;;;11.12;100.00;100848.72;5091559;28;20126;-80
2022/04/06 06:37:36;;;;;;;39.38;36.50;;;;;;;11.21;99.02;100850.16;5092129;28;20123;-80
2022/04/06 06:40:04;;;;;;;40.50;36.78;;;;;;;11.36;96.08;100852.59;5090444;28;20040;-79
2022/04/06 06:42:31;;;;;;;37.65;35.20;;;;;;;11.58;80.37;100847.00;5089798;28;20086;-80
2022/04/06 06:44:58;;;;;;;37.42;35.17;;;;;;;12.02;74.16;100850.78;5091552;28;20127;-80
2022/04/06 06:47:26;;;;;;;38.75;36.25;;;;;;;12.06;71.85;100842.13;5085669;28;20056;-80
2022/04/06 06:49:53;;;;;;;40.30;37.70;;;;;;;12.39;72.02;100851.78;5088125;28;20052;-80
2022/04/06 06:52:19;;;;;;;39.13;36.75;;;;;;;12.60;70.86;100856.78;5090299;28;20074;-80
2022/04/06 06:54:46;;;;;;;38.58;36.15;;;;;;;12.25;67.35;100856.38;5085570;28;20048;-80
2022/04/06 06:57:13;;;;;;;37.70;35.47;;;;;;;12.58;70.26;100855.34;5085058;28;20180;-80
2022/04/06 06:59:42;;;;;;;36.80;34.70;;;;;;;12.49;67.98;100861.97;5087037;28;20101;-80
2022/04/06 07:02:10;;;;;;;38.88;36.20;;;;;;;12.21;72.29;100865.00;5091688;28;20131;-80
2022/04/06 07:04:38;;;;;;;37.35;34.97;;;;;;;12.42;69.27;100867.34;5090908;28;20048;-80
2022/04/06 07:07:05;;;;;;;39.75;37.15;;;;;;;12.07;74.18;100867.75;5092125;28;20105;-80
2022/04/06 07:09:33;;;;;;;38.03;35.78;;;;;;;12.56;67.33;100871.56;5092953;28;20117;-80
2022/04/06 07:12:00;;;;;;;38.60;36.00;;;;;;;11.99;73.00;100867.16;5090562;28;20047;-79
2022/04/06 07:14:27;;;;;;;38.10;35.70;;;;;;;12.04;72.54;100868.19;5089244;28;20048;-79
2022/04/06 07:16:54;;;;;;;38.13;35.33;;;;;;;11.99;75.49;100880.47;5082899;28;20491;-79
2022/04/06 07:19:22;;;;;;;36.13;33.97;;;;;;;12.58;68.34;100876.66;5083544;28;20495;-79
2022/04/06 07:21:50;;;;;;;36.65;34.25;;;;;;;12.28;74.31;100879.09;5094781;28;20086;-79
2022/04/06 07:24:17;;;;;;;38.63;36.30;;;;;;;12.38;72.38;100876.81;5091057;28;20420;-79
2022/04/06 07:26:44;;;;;;;37.42;35.22;;;;;;;12.34;70.75;100887.06;5084477;28;20055;-79
2022/04/06 07:29:11;;;;;;;37.63;35.22;;;;;;;12.30;74.52;100893.03;5091934;28;20098;-79
2022/04/06 07:31:38;;;;;;;36.72;34.38;;;;;;;12.49;71.55;100899.25;5087404;28;20143;-79
2022/04/06 07:34:05;;;;;;;37.22;34.72;;;;;;;12.88;67.71;100898.19;5084629;28;20109;-79
2022/04/06 07:36:32;;;;;;;39.03;36.58;;;;;;;12.26;72.48;100899.81;5090121;28;20055;-79
2022/04/06 07:39:03;;;;;;;40.67;38.38;;;;;;;13.01;66.77;100914.09;5091847;28;20044;-79
2022/04/06 07:41:30;;;;;;;38.33;35.83;;;;;;;12.82;71.17;100899.88;5082511;28;20060;-79
2022/04/06 07:43:57;;;;;;;37.17;35.05;;;;;;;13.52;74.77;100907.75;5088295;28;20048;-78
2022/04/06 07:46:24;;;;;;;37.85;35.50;;;;;;;13.53;67.59;100905.88;5090343;28;20484;-79
2022/04/06 07:48:50;;;;;;;37.03;34.60;;;;;;;13.56;66.78;100905.44;5088829;28;20043;-79
2022/04/06 07:51:17;;;;;;;37.67;35.33;;;;;;;14.03;63.00;100899.56;5085116;28;20044;-80
2022/04/06 07:53:44;;;;;;;37.75;35.55;;;;;;;13.05;68.91;100915.28;5085555;28;20101;-79
2022/04/06 07:56:13;;;;;;;41.35;38.63;;;;;;;12.78;69.90;100911.19;5087564;28;20048;-79
2022/04/06 07:58:40;;;;;;;37.13;34.83;;;;;;;14.37;61.55;100909.63;5083960;28;20047;-80
2022/04/06 08:01:08;;;;;;;36.45;33.88;;;;;;;14.42;59.37;100903.59;5088595;28;20071;-80
2022/04/06 08:03:35;;;;;;;37.22;34.80;;;;;;;14.32;61.73;100906.00;5084307;28;20134;-80
2022/04/06 08:06:02;;;;;;;38.00;35.67;;;;;;;14.52;60.14;100909.22;5086858;28;20052;-80
2022/04/06 08:08:29;;;;;;;39.72;37.10;;;;;;;13.96;58.34;100911.16;5079728;28;20056;-79
2022/04/06 08:10:57;;;;;;;35.72;33.63;;;;;;;14.34;63.01;100912.75;5084835;28;20048;-79
2022/04/06 08:13:25;;;;;;;37.17;35.08;;;;;;;14.74;59.18;100912.22;5091063;28;20043;-80
2022/04/06 08:15:52;;;;;;;37.13;34.92;;;;;;;15.65;58.36;100909.25;5081048;28;20488;-79
2022/04/06 08:18:21;;;;;;;38.67;36.50;;;;;;;14.64;59.20;100918.13;5085713;28;20076;-79
2022/04/06 08:20:48;;;;;;;37.33;35.03;;;;;;;15.35;60.73;100902.16;5086227;28;20044;-79
2022/04/06 08:23:17;;;;;;;41.38;39.08;;;;;;;15.85;56.29;100895.50;5081461;28;20049;-79
2022/04/06 08:25:44;;;;;;;38.83;36.63;;;;;;;16.42;54.35;100903.59;5084966;28;20119;-80
2022/04/06 08:28:10;;;;;;;36.30;34.22;;;;;;;15.77;55.92;100904.72;5077165;28;20097;-79
2022/04/06 08:30:42;;;;;;;36.70;34.58;;;;;;;14.82;56.59;100901.16;5082532;28;20106;-79
2022/04/06 08:33:09;;;;;;;37.80;35.53;;;;;;;14.73;58.52;100901.72;5084134;28;20489;-80
2022/04/06 08:35:36;;;;;;;38.40;36.13;;;;;;;15.66;54.93;100895.63;5081550;28;20543;-79
2022/04/06 08:38:03;;;;;;;38.95;36.75;;;;;;;15.07;55.22;100892.97;5090427;28;20048;-81
2022/04/06 08:40:32;;;;;;;39.17;37.00;;;;;;;15.33;54.54;100906.94;5076330;28;20051;-80
2022/04/06 08:43:00;;;;;;;37.50;35.42;;;;;;;16.40;50.92;100909.22;5077816;28;20055;-79
2022/04/06 08:45:27;;;;;;;37.42;35.10;;;;;;;16.54;50.98;100914.25;5083422;28;20055;-80
2022/04/06 08:47:58;;;;;;;37.22;35.17;;;;;;;16.18;52.09;100903.69;5083125;28;20097;-79
2022/04/06 08:50:29;;;;;;;38.58;36.38;;;;;;;16.45;49.31;100895.88;5084533;28;20576;-79
2022/04/06 08:52:57;;;;;;;38.15;35.95;;;;;;;16.38;49.52;100897.91;5076930;28;20047;-80
2022/04/06 08:55:24;;;;;;;39.78;37.47;;;;;;;16.42;49.62;100901.72;5080711;28;20048;-79
2022/04/06 08:57:51;;;;;;;35.88;33.80;;;;;;;16.33;54.57;100895.13;5081185;28;20044;-80
2022/04/06 09:00:18;;;;;;;38.72;36.40;;;;;;;17.02;49.54;100895.00;5082709;28;20059;-79
2022/04/06 09:02:45;;;;;;;37.58;35.38;;;;;;;16.73;49.76;100899.56;5083514;28;20047;-79
2022/04/06 09:05:14;;;;;;;36.83;34.60;;;;;;;16.89;52.02;100892.66;5078086;28;20052;-79
2022/04/06 09:07:41;;;;;;;37.10;34.80;;;;;;;16.03;50.62;100892.66;5089105;28;20098;-79
2022/04/06 09:10:09;;;;;;;38.42;36.22;;;;;;;15.55;53.46;100885.75;5081965;28;20060;-79
2022/04/06 09:12:36;;;;;;;39.75;37.35;;;;;;;15.81;54.07;100887.13;5082504;28;20051;-80
2022/04/06 09:15:08;;;;;;;36.85;34.65;;;;;;;14.80;56.78;100879.22;5081897;28;20040;-79
2022/04/06 09:17:44;;;;;;;41.38;38.97;;;;;;;15.79;56.16;100865.13;5090610;28;20052;-79
2022/04/06 09:20:12;;;;;;;39.03;36.47;;;;;;;17.49;54.88;100861.56;5087253;28;20930;-79
2022/04/06 09:22:40;;;;;;;38.40;36.20;;;;;;;16.15;49.92;100866.63;5088997;28;20109;-79
2022/04/06 09:25:08;;;;;;;38.90;36.50;;;;;;;17.04;49.93;100863.38;5082189;28;20044;-80
2022/04/06 09:27:34;;;;;;;38.75;36.42;;;;;;;16.66;54.22;100866.75;5086576;28;20120;-79
2022/04/06 09:30:05;;;;;;;36.53;34.22;;;;;;;16.10;53.97;100863.06;5086862;28;20492;-80
2022/04/06 09:32:31;;;;;;;35.97;33.78;;;;;;;15.20;56.65;100859.00;5091146;28;20044;-79
2022/04/06 09:34:58;;;;;;;36.63;34.33;;;;;;;16.70;56.67;100846.44;5080427;28;20051;-79
2022/04/06 09:37:26;;;;;;;37.55;35.25;;;;;;;17.01;51.59;100860.38;5089519;28;20048;-80
2022/04/06 09:39:56;;;;;;;38.22;35.83;;;;;;;17.19;54.52;100854.75;5085508;28;20048;-80
2022/04/06 09:42:25;;;;;;;38.75;36.38;;;;;;;15.18;56.68;100850.41;5086105;28;20131;-79
2022/04/06 09:47:41;;;;;;;37.08;34.67;;;;;;;16.68;56.16;100851.25;5080516;28;20062;-79
2022/04/06 09:50:15;;;;;;;39.67;37.17;;;;;;;17.05;54.88;100848.09;5084719;28;20139;-79
2022/04/06 09:52:43;;;;;;;38.08;35.75;;;;;;;16.92;53.64;100846.56;5091114;28;20119;-81
2022/04/06 09:55:14;;;;;;;38.20;35.78;;;;;;;17.79;52.07;100834.31;5089276;28;20046;-80
2022/04/06 09:57:43;;;;;;;39.45;37.05;;;;;;;16.54;52.36;100841.88;5089616;28;20427;-79
2022/04/06 10:00:13;;;;;;;41.80;39.40;;;;;;;17.36;53.86;100834.03;5081730;28;20048;-80
2022/04/06 10:02:41;;;;;;;39.28;36.88;;;;;;;17.41;52.60;100822.56;5079826;28;20462;-79
2022/04/06 10:05:13;;;;;;;37.08;34.85;;;;;;;18.05;52.87;100832.75;5086823;28;20105;-79
2022/04/06 10:07:41;;;;;;;36.83;34.70;;;;;;;16.65;54.12;100830.28;5087456;28;20474;-79
2022/04/06 10:10:24;;;;;;;36.88;34.72;;;;;;;17.59;52.20;100818.75;5081260;28;20597;-80
2022/04/06 10:12:53;;;;;;;37.75;35.03;;;;;;;16.11;55.07;100819.16;5082132;28;20059;-79
2022/04/06 10:15:21;;;;;;;37.80;35.70;;;;;;;19.24;50.36;100817.31;5088794;28;20048;-80
2022/04/06 10:17:47;;;;;;;38.58;36.40;;;;;;;17.14;49.55;100822.47;5085165;28;20066;-79
2022/04/06 10:20:22;;;;;;;37.88;35.50;;;;;;;17.31;51.28;100823.25;5087068;28;20699;-80
2022/04/06 10:23:01;;;;;;;40.53;38.03;;;;;;;15.11;57.50;100819.22;5084781;28;20049;-79
2022/04/06 10:25:44;;;;;;;39.67;37.35;;;;;;;17.78;53.39;100813.91;5078372;28;20052;-80
2022/04/06 10:28:13;;;;;;;37.85;35.65;;;;;;;18.16;51.58;100812.19;5090858;28;20044;-81
2022/04/06 10:30:40;;;;;;;38.35;36.05;;;;;;;16.89;51.87;100815.66;5091454;28;20507;-81
2022/04/06 10:33:20;;;;;;;40.15;37.83;;;;;;;16.32;56.63;100805.06;5084272;28;20101;-80
2022/04/06 10:35:47;;;;;;;40.40;38.17;;;;;;;17.61;51.88;100805.91;5091346;28;20051;-80
2022/04/06 10:38:16;;;;;;;38.22;36.00;;;;;;;16.39;54.72;100807.56;5092507;28;20101;-80
2022/04/06 10:41:06;;;;;;;41.78;39.22;;;;;;;17.27;51.78;100805.19;5087540;28;20051;-82
2022/04/06 10:43:50;;;;;;;40.78;38.28;;;;;;;17.50;49.13;100796.09;5089079;28;20052;-80
2022/04/06 10:46:18;;;;;;;38.13;35.83;;;;;;;17.36;50.87;100801.00;5086857;28;20051;-80
2022/04/06 10:48:58;;;;;;;39.22;36.83;;;;;;;17.91;52.65;100808.13;5089272;28;20523;-80
2022/04/06 10:51:30;;;;;;;39.15;36.85;;;;;;;17.19;52.81;100798.38;5090244;28;20405;-80
2022/04/06 10:53:57;;;;;;;39.70;37.25;;;;;;;19.36;50.08;100796.38;5081327;28;20660;-80
2022/04/06 10:56:25;;;;;;;38.22;35.95;;;;;;;17.20;52.13;100800.00;5083246;28;20052;-81
2022/04/06 10:59:09;;;;;;;37.35;35.15;;;;;;;16.99;52.52;100798.91;5085910;28;20051;-80
2022/04/06 11:01:38;;;;;;;38.72;36.63;;;;;;;17.24;52.90;100792.25;5084134;28;20488;-81
2022/04/06 11:04:09;;;;;;;39.63;37.28;;;;;;;18.62;48.77;100788.38;5085698;28;20092;-81
2022/04/06 11:06:56;;;;;;;41.00;38.50;;;;;;;22.18;43.58;100783.47;5089539;28;20139;-80
2022/04/06 11:12:13;;;;;;;38.63;36.42;;;;;;;16.74;52.48;100783.22;5082508;28;20068;-79
2022/04/06 11:14:41;;;;;;;40.45;38.15;;;;;;;18.51;48.60;100782.09;5088094;28;20109;-79
2022/04/06 11:17:41;;;;;;;38.17;35.97;;;;;;;17.53;50.67;100774.91;5082825;28;20105;-79
2022/04/06 11:20:10;;;;;;;39.03;36.53;;;;;;;17.39;50.51;100771.78;5089250;28;20047;-80
2022/04/06 11:22:39;;;;;;;41.08;38.72;;;;;;;19.01;54.83;100767.41;5088259;28;20052;-80